Time;durP1;ratioP1;P1;durP2;ratioP2;P2;SDS_P1;SDS_P2;PMS_P1;PMS_P2;Temp;Humidity;BMP_temperature;BMP_pressure;BME280_temperature;BME280_humidity;BME280_pressure;Samples;Min_cycle;Max_cycle;Signal;HPM_P1;HPM_P2
2023/10/30 06:00:09;;;;;;;5.40;4.90;;;12.80;97.20;;;;;;1742132;28;20183;-79
2023/10/30 06:01:00;;;;;;;5.40;5.00;;;12.80;97.20;;;;;;1741774;28;20224;-77
2023/10/30 06:01:51;;;;;;;5.10;4.70;;;12.80;97.20;;;;;;1741329;28;20203;-76
2023/10/30 06:02:42;;;;;;;5.73;5.17;;;12.80;97.20;;;;;;1735425;28;20192;-77
2023/10/30 06:03:33;;;;;;;5.68;5.18;;;12.80;97.20;;;;;;1736709;28;20599;-78
2023/10/30 06:04:24;;;;;;;7.60;4.90;;;12.80;97.20;;;;;;1741685;28;20199;-77
2023/10/30 06:05:16;;;;;;;5.90;5.40;;;12.80;97.20;;;;;;1741522;28;20827;-77
2023/10/30 06:06:07;;;;;;;5.95;5.45;;;12.70;97.20;;;;;;1741579;28;20637;-78
2023/10/30 06:06:57;;;;;;;6.67;6.17;;;12.80;97.20;;;;;;1741524;28;20199;-78
2023/10/30 06:07:49;;;;;;;6.80;6.20;;;12.80;97.20;;;;;;1741274;28;20294;-77
2023/10/30 06:08:40;;;;;;;6.30;5.75;;;12.80;97.20;;;;;;1741812;28;20609;-77
2023/10/30 06:09:32;;;;;;;7.50;7.00;;;12.80;97.20;;;;;;1741432;28;20623;-78
2023/10/30 06:10:23;;;;;;;6.47;5.90;;;12.80;97.20;;;;;;1741746;28;20226;-78
2023/10/30 06:11:14;;;;;;;6.85;6.35;;;12.80;97.20;;;;;;1741697;28;20210;-78
2023/10/30 06:12:07;;;;;;;6.33;5.83;;;12.80;97.20;;;;;;1741403;28;20333;-77
2023/10/30 06:12:58;;;;;;;7.68;6.97;;;12.90;97.20;;;;;;1739465;28;20696;-77
2023/10/30 06:13:49;;;;;;;10.27;6.73;;;12.90;97.20;;;;;;1740525;28;20688;-77
2023/10/30 06:14:41;;;;;;;6.95;6.45;;;12.90;97.20;;;;;;1741290;28;20681;-76
2023/10/30 06:15:34;;;;;;;7.82;7.13;;;12.90;97.20;;;;;;1740912;28;20264;-77
2023/10/30 06:16:26;;;;;;;8.10;7.30;;;12.90;97.20;;;;;;1741142;28;20289;-77
2023/10/30 06:17:17;;;;;;;7.80;7.07;;;12.90;97.20;;;;;;1739041;28;20255;-78
2023/10/30 06:18:08;;;;;;;7.87;7.00;;;12.80;97.20;;;;;;1741793;28;20203;-79
2023/10/30 06:19:00;;;;;;;8.03;7.43;;;12.80;97.20;;;;;;1740328;28;20438;-79
2023/10/30 06:19:51;;;;;;;8.07;7.30;;;12.80;97.20;;;;;;1741808;28;20210;-77
2023/10/30 06:20:44;;;;;;;7.67;7.07;;;12.80;97.20;;;;;;1742300;28;20283;-77
2023/10/30 06:21:36;;;;;;;8.10;7.50;;;12.80;97.20;;;;;;1742930;28;20579;-78
2023/10/30 06:22:30;;;;;;;7.22;6.65;;;12.80;97.20;;;;;;1742520;28;20218;-78
2023/10/30 06:23:22;;;;;;;7.78;7.07;;;12.80;97.20;;;;;;1740614;28;20235;-79
2023/10/30 06:24:13;;;;;;;8.25;7.65;;;12.80;97.20;;;;;;1741801;28;20202;-78
2023/10/30 06:25:05;;;;;;;8.13;7.43;;;12.80;97.20;;;;;;1742238;28;20199;-77
2023/10/30 06:25:56;;;;;;;7.88;7.28;;;12.80;97.20;;;;;;1736256;28;20496;-79
2023/10/30 06:26:47;;;;;;;7.97;7.38;;;12.80;97.20;;;;;;1743385;28;20203;-80
2023/10/30 06:27:41;;;;;;;8.03;7.27;;;12.80;97.20;;;;;;1743036;28;20210;-80
2023/10/30 06:28:31;;;;;;;8.65;7.70;;;12.90;97.20;;;;;;1743733;28;20214;-79
2023/10/30 06:29:22;;;;;;;8.50;7.80;;;12.90;97.20;;;;;;1741634;28;20200;-80
2023/10/30 06:30:14;;;;;;;9.00;8.10;;;12.90;97.20;;;;;;1740476;28;20720;-77
2023/10/30 06:31:13;;;;;;;8.30;7.50;;;12.90;97.20;;;;;;1739972;28;20210;-80
2023/10/30 06:32:05;;;;;;;8.93;8.07;;;12.90;97.20;;;;;;1740053;28;20199;-79
2023/10/30 06:32:56;;;;;;;11.75;8.90;;;12.90;97.20;;;;;;1741527;28;20198;-79
2023/10/30 06:33:48;;;;;;;10.00;8.63;;;12.90;97.20;;;;;;1740829;28;20230;-80
2023/10/30 06:34:41;;;;;;;8.70;7.93;;;12.90;97.20;;;;;;1739385;28;20207;-79
2023/10/30 06:35:31;;;;;;;8.88;8.18;;;12.90;97.20;;;;;;1741747;28;20210;-79
2023/10/30 06:36:23;;;;;;;8.63;7.93;;;12.90;97.20;;;;;;1742214;28;20199;-79
2023/10/30 06:37:15;;;;;;;10.35;8.70;;;12.90;97.20;;;;;;1742079;28;20199;-79
2023/10/30 06:38:06;;;;;;;9.23;8.43;;;12.90;97.20;;;;;;1741678;28;20202;-79
2023/10/30 06:38:59;;;;;;;8.93;8.23;;;12.90;97.20;;;;;;1741698;28;20281;-79
2023/10/30 06:39:49;;;;;;;9.43;8.63;;;12.90;97.20;;;;;;1739144;28;20450;-79
2023/10/30 06:40:40;;;;;;;10.07;9.27;;;12.90;97.20;;;;;;1741182;28;20194;-79
2023/10/30 06:41:32;;;;;;;10.00;9.10;;;12.90;97.20;;;;;;1740878;28;20199;-79
2023/10/30 06:42:23;;;;;;;9.57;8.68;;;12.90;97.20;;;;;;1741561;28;20687;-80
2023/10/30 06:43:13;;;;;;;9.80;8.90;;;12.90;97.20;;;;;;1741166;28;20700;-79
2023/10/30 06:44:06;;;;;;;9.17;8.37;;;12.90;97.20;;;;;;1741235;28;20214;-79
2023/10/30 06:44:56;;;;;;;9.95;8.95;;;12.80;97.20;;;;;;1737419;28;20192;-79
2023/10/30 06:45:47;;;;;;;9.87;8.97;;;12.80;97.20;;;;;;1740214;28;20243;-77
2023/10/30 06:46:40;;;;;;;9.63;8.63;;;12.80;97.20;;;;;;1741169;28;20226;-78
2023/10/30 06:47:31;;;;;;;9.57;8.68;;;12.80;97.20;;;;;;1741328;28;20456;-78
2023/10/30 06:48:23;;;;;;;10.70;9.67;;;12.80;97.20;;;;;;1742208;28;20192;-78
2023/10/30 06:49:14;;;;;;;10.30;9.32;;;12.80;97.20;;;;;;1741555;28;20229;-78
2023/10/30 06:50:05;;;;;;;9.80;8.90;;;12.80;97.20;;;;;;1742528;28;20195;-78
2023/10/30 06:50:57;;;;;;;9.10;8.40;;;12.80;97.20;;;;;;1741705;28;20286;-77
2023/10/30 06:51:49;;;;;;;9.98;8.82;;;12.80;97.20;;;;;;1741741;28;20554;-77
2023/10/30 06:52:40;;;;;;;8.85;7.95;;;12.80;97.20;;;;;;1741467;28;20210;-77
2023/10/30 06:53:32;;;;;;;8.93;8.23;;;12.90;97.20;;;;;;1740582;28;20214;-77
2023/10/30 06:54:23;;;;;;;8.70;8.00;;;12.90;97.20;;;;;;1741980;28;20446;-78
2023/10/30 06:55:15;;;;;;;9.53;8.70;;;12.90;97.20;;;;;;1741948;28;20235;-77
2023/10/30 06:56:06;;;;;;;9.50;8.45;;;12.90;97.20;;;;;;1741592;28;20230;-77
2023/10/30 06:56:57;;;;;;;8.98;8.05;;;12.90;97.20;;;;;;1741520;28;20195;-77
2023/10/30 06:57:49;;;;;;;10.15;9.15;;;13.00;97.20;;;;;;1741978;28;20195;-77
2023/10/30 06:58:40;;;;;;;8.98;8.13;;;13.00;97.20;;;;;;1734891;28;20208;-77
2023/10/30 06:59:31;;;;;;;8.47;7.77;;;13.00;97.20;;;;;;1741298;28;20213;-77
2023/10/30 07:00:23;;;;;;;8.77;7.57;;;13.00;97.20;;;;;;1741451;28;20286;-77
2023/10/30 07:01:14;;;;;;;8.48;7.78;;;13.10;97.20;;;;;;1741727;28;20286;-77
2023/10/30 07:02:06;;;;;;;8.17;7.47;;;13.10;97.20;;;;;;1742084;28;20629;-77
2023/10/30 07:02:58;;;;;;;8.43;7.70;;;13.10;97.20;;;;;;1741404;28;20257;-77
2023/10/30 07:03:49;;;;;;;7.93;7.28;;;13.10;97.20;;;;;;1740600;28;20584;-79
2023/10/30 07:04:41;;;;;;;7.65;7.05;;;13.20;97.20;;;;;;1737110;28;20188;-78
2023/10/30 07:05:32;;;;;;;8.35;7.65;;;13.20;97.20;;;;;;1738687;28;20203;-78
2023/10/30 07:06:23;;;;;;;8.80;7.90;;;13.20;97.20;;;;;;1738292;28;20273;-77
2023/10/30 07:07:14;;;;;;;8.97;8.20;;;13.20;97.20;;;;;;1738483;28;20782;-78
2023/10/30 07:08:05;;;;;;;7.65;6.90;;;13.20;97.20;;;;;;1739793;28;20191;-78
2023/10/30 07:08:56;;;;;;;8.37;7.67;;;13.30;97.20;;;;;;1737048;28;20717;-78
2023/10/30 07:09:48;;;;;;;7.80;7.10;;;13.30;97.20;;;;;;1739590;28;20199;-79
2023/10/30 07:10:39;;;;;;;7.35;6.18;;;13.30;97.20;;;;;;1739346;28;20206;-78
2023/10/30 07:11:29;;;;;;;8.40;6.53;;;13.30;97.20;;;;;;1740520;28;20286;-75
2023/10/30 07:12:21;;;;;;;8.73;6.33;;;13.40;97.20;;;;;;1737881;28;20492;-75
2023/10/30 07:13:13;;;;;;;6.35;5.82;;;13.40;97.20;;;;;;1733816;28;20203;-76
2023/10/30 07:14:05;;;;;;;6.55;6.05;;;13.40;97.20;;;;;;1736048;28;20741;-75
2023/10/30 07:14:55;;;;;;;6.68;6.07;;;13.50;97.20;;;;;;1740342;28;20199;-75
2023/10/30 07:15:47;;;;;;;5.30;4.90;;;13.50;97.20;;;;;;1735044;28;20203;-75
2023/10/30 07:16:38;;;;;;;7.10;6.50;;;13.50;97.20;;;;;;1737810;28;20212;-75
2023/10/30 07:17:31;;;;;;;7.33;6.17;;;13.50;97.20;;;;;;1733784;28;20211;-75
2023/10/30 07:18:22;;;;;;;7.00;5.97;;;13.60;97.20;;;;;;1733016;28;20450;-76
2023/10/30 07:19:13;;;;;;;6.80;6.20;;;13.60;97.20;;;;;;1738582;28;20203;-76
2023/10/30 07:20:05;;;;;;;5.90;5.40;;;13.60;97.20;;;;;;1737453;28;20222;-75
2023/10/30 07:20:56;;;;;;;7.63;6.05;;;13.60;97.20;;;;;;1735986;28;20211;-75
2023/10/30 07:21:48;;;;;;;5.77;5.37;;;13.60;97.20;;;;;;1735792;28;20271;-75
2023/10/30 07:22:38;;;;;;;6.20;5.60;;;13.60;97.20;;;;;;1735578;28;20210;-76
2023/10/30 07:23:30;;;;;;;6.17;5.67;;;13.70;97.20;;;;;;1731832;28;20234;-76
2023/10/30 07:24:21;;;;;;;7.15;6.07;;;13.70;97.20;;;;;;1737498;28;20365;-76
2023/10/30 07:25:11;;;;;;;9.43;6.27;;;13.70;97.20;;;;;;1739500;28;20325;-77
2023/10/30 07:26:05;;;;;;;8.60;6.70;;;13.70;97.20;;;;;;1739783;28;20198;-75
2023/10/30 07:26:57;;;;;;;6.75;6.15;;;13.70;97.20;;;;;;1736692;28;20238;-74
2023/10/30 07:27:48;;;;;;;7.78;7.07;;;13.70;97.20;;;;;;1739609;28;20294;-74
2023/10/30 07:28:40;;;;;;;6.77;6.17;;;13.70;97.20;;;;;;1739415;28;20210;-76
2023/10/30 07:29:30;;;;;;;7.18;6.47;;;13.80;97.20;;;;;;1739517;28;20203;-75
2023/10/30 07:30:24;;;;;;;8.40;7.60;;;13.80;97.20;;;;;;1739411;28;20207;-77
2023/10/30 07:31:17;;;;;;;9.10;8.30;;;13.80;97.20;;;;;;1739854;28;20199;-77
2023/10/30 07:32:08;;;;;;;9.77;8.30;;;13.80;97.20;;;;;;1739763;28;20203;-77
2023/10/30 07:33:02;;;;;;;7.80;7.10;;;13.80;97.20;;;;;;1738979;28;20241;-77
2023/10/30 07:33:53;;;;;;;7.70;7.05;;;13.80;97.20;;;;;;1738449;28;20223;-78
2023/10/30 07:34:44;;;;;;;7.32;6.72;;;13.90;97.20;;;;;;1736802;28;20929;-76
2023/10/30 07:35:35;;;;;;;8.53;7.80;;;13.90;97.20;;;;;;1736055;28;20250;-76
2023/10/30 07:36:26;;;;;;;8.85;7.95;;;13.90;97.20;;;;;;1739611;28;20222;-75
2023/10/30 07:37:17;;;;;;;8.93;8.13;;;14.00;97.20;;;;;;1740355;28;20200;-77
2023/10/30 07:38:09;;;;;;;8.87;8.07;;;14.00;97.20;;;;;;1739723;28;20866;-77
2023/10/30 07:39:00;;;;;;;8.32;7.57;;;14.00;97.20;;;;;;1739679;28;20203;-77
2023/10/30 07:39:50;;;;;;;7.10;6.50;;;14.10;97.20;;;;;;1734106;28;20202;-76
2023/10/30 07:40:42;;;;;;;8.40;7.60;;;14.10;97.20;;;;;;1732823;28;20199;-77
2023/10/30 07:41:33;;;;;;;8.70;7.90;;;14.10;97.20;;;;;;1736626;28;20217;-77
2023/10/30 07:42:24;;;;;;;9.03;8.13;;;14.10;97.20;;;;;;1739741;28;20229;-77
2023/10/30 07:43:15;;;;;;;9.23;8.33;;;14.20;97.20;;;;;;1738212;28;20560;-77
2023/10/30 07:44:07;;;;;;;9.70;8.90;;;14.20;97.20;;;;;;1732918;28;20208;-77
2023/10/30 07:44:57;;;;;;;10.85;8.50;;;14.20;97.20;;;;;;1733592;28;20314;-77
2023/10/30 07:45:50;;;;;;;10.40;8.93;;;14.20;97.20;;;;;;1734953;28;20196;-77
2023/10/30 07:46:40;;;;;;;9.07;8.20;;;14.30;97.20;;;;;;1733010;28;20211;-78
2023/10/30 07:47:32;;;;;;;9.87;8.87;;;14.30;97.20;;;;;;1739216;28;20683;-77
2023/10/30 07:48:26;;;;;;;8.70;8.00;;;14.40;97.20;;;;;;1739796;28;20207;-77
2023/10/30 07:49:17;;;;;;;9.50;8.70;;;14.40;97.20;;;;;;1739515;28;20593;-76
2023/10/30 07:50:09;;;;;;;10.30;8.90;;;14.40;97.20;;;;;;1739617;28;20203;-77
2023/10/30 07:51:04;;;;;;;11.20;8.90;;;14.40;97.20;;;;;;1739536;28;20203;-77
2023/10/30 07:51:55;;;;;;;9.18;8.25;;;14.50;97.20;;;;;;1739557;28;20572;-77
2023/10/30 07:52:45;;;;;;;9.30;8.50;;;14.50;97.20;;;;;;1739609;28;20203;-76
2023/10/30 07:53:38;;;;;;;9.97;7.97;;;14.50;97.20;;;;;;1739564;28;20269;-77
2023/10/30 07:54:29;;;;;;;8.38;7.68;;;14.50;97.20;;;;;;1741029;28;20499;-77
2023/10/30 07:55:21;;;;;;;8.97;8.13;;;14.50;97.20;;;;;;1740563;28;20215;-77
2023/10/30 07:56:11;;;;;;;9.05;8.20;;;14.50;97.20;;;;;;1741230;28;20687;-77
2023/10/30 07:57:04;;;;;;;8.97;7.80;;;14.50;97.20;;;;;;1740985;28;20597;-77
2023/10/30 07:57:57;;;;;;;8.82;7.90;;;14.50;97.20;;;;;;1740636;28;20191;-77
2023/10/30 07:58:48;;;;;;;9.15;8.45;;;14.50;97.20;;;;;;1740979;28;20691;-77
2023/10/30 07:59:38;;;;;;;8.10;7.30;;;14.60;97.20;;;;;;1738035;28;20640;-76
2023/10/30 08:00:30;;;;;;;8.70;7.90;;;14.60;97.20;;;;;;1739311;28;20246;-77
2023/10/30 08:01:21;;;;;;;9.43;8.45;;;14.60;97.20;;;;;;1735026;28;20211;-77
2023/10/30 08:02:13;;;;;;;8.20;7.47;;;14.60;97.20;;;;;;1740814;28;20203;-78
2023/10/30 08:03:03;;;;;;;8.15;7.45;;;14.70;97.20;;;;;;1740879;28;20825;-77
2023/10/30 08:03:56;;;;;;;8.07;7.27;;;14.70;97.20;;;;;;1740300;28;20334;-77
2023/10/30 08:04:47;;;;;;;8.15;7.45;;;14.70;97.20;;;;;;1741370;28;20203;-78
2023/10/30 08:05:40;;;;;;;7.70;7.00;;;14.70;97.20;;;;;;1741039;28;20737;-78
2023/10/30 08:06:32;;;;;;;9.77;7.72;;;14.70;97.20;;;;;;1741326;28;20203;-78
2023/10/30 08:07:23;;;;;;;8.00;7.40;;;14.70;97.20;;;;;;1741272;28;20199;-77
2023/10/30 08:08:17;;;;;;;8.63;7.93;;;14.80;97.20;;;;;;1741094;28;20241;-77
2023/10/30 08:09:08;;;;;;;9.25;8.35;;;14.80;97.20;;;;;;1740695;28;20665;-77
2023/10/30 08:09:59;;;;;;;10.52;9.43;;;14.80;97.20;;;;;;1740587;28;20613;-77
2023/10/30 08:10:51;;;;;;;9.03;8.33;;;14.90;97.20;;;;;;1737435;28;20645;-77
2023/10/30 08:11:42;;;;;;;9.05;8.00;;;14.90;97.20;;;;;;1738106;28;20211;-78
2023/10/30 08:12:32;;;;;;;7.85;7.15;;;14.90;97.20;;;;;;1741122;28;20205;-78
2023/10/30 08:13:24;;;;;;;9.23;8.33;;;14.90;97.20;;;;;;1739936;28;20206;-78
2023/10/30 08:14:15;;;;;;;9.90;8.90;;;14.90;97.20;;;;;;1741258;28;20650;-78
2023/10/30 08:15:07;;;;;;;9.03;8.13;;;15.00;97.20;;;;;;1741129;28;20238;-77
2023/10/30 08:15:58;;;;;;;8.77;7.97;;;15.00;97.20;;;;;;1736506;28;20200;-77
2023/10/30 08:16:49;;;;;;;9.88;8.88;;;15.00;97.20;;;;;;1733912;28;20203;-77
2023/10/30 08:17:40;;;;;;;9.43;8.47;;;15.00;97.20;;;;;;1740786;28;20214;-77
2023/10/30 08:18:31;;;;;;;9.90;8.20;;;15.10;97.20;;;;;;1741238;28;20207;-76
2023/10/30 08:19:23;;;;;;;9.18;8.18;;;15.10;97.20;;;;;;1740963;28;20210;-77
2023/10/30 08:20:15;;;;;;;9.43;8.43;;;15.10;97.20;;;;;;1740998;28;20206;-78
2023/10/30 08:21:07;;;;;;;11.38;8.57;;;15.10;97.20;;;;;;1741171;28;20195;-78
2023/10/30 08:21:57;;;;;;;8.02;7.43;;;15.10;97.20;;;;;;1741016;28;20696;-78
2023/10/30 08:22:49;;;;;;;6.70;6.10;;;15.10;97.20;;;;;;1741234;28;20818;-78
2023/10/30 08:23:40;;;;;;;8.23;6.35;;;15.10;97.20;;;;;;1739822;28;20223;-78
2023/10/30 08:24:30;;;;;;;7.93;7.23;;;15.10;97.20;;;;;;1741046;28;20205;-76
2023/10/30 08:25:22;;;;;;;7.67;7.03;;;15.10;97.20;;;;;;1740732;28;20449;-77
2023/10/30 08:26:13;;;;;;;7.90;7.30;;;15.10;97.20;;;;;;1734884;28;20577;-76
2023/10/30 08:27:04;;;;;;;8.60;7.77;;;15.20;97.20;;;;;;1740688;28;20293;-75
2023/10/30 08:27:57;;;;;;;7.53;6.80;;;15.20;97.20;;;;;;1740489;28;20210;-76
2023/10/30 08:28:48;;;;;;;7.40;6.68;;;15.20;97.20;;;;;;1740858;28;20638;-77
2023/10/30 08:29:39;;;;;;;7.43;6.77;;;15.20;97.20;;;;;;1740697;28;20691;-76
2023/10/30 08:30:31;;;;;;;6.93;5.80;;;15.20;97.20;;;;;;1740830;28;20206;-77
2023/10/30 08:31:22;;;;;;;7.07;6.40;;;15.20;97.20;;;;;;1740276;28;20464;-78
2023/10/30 08:32:13;;;;;;;6.40;5.88;;;15.30;97.20;;;;;;1740425;28;20248;-77
2023/10/30 08:33:05;;;;;;;6.10;5.60;;;15.30;97.20;;;;;;1740808;28;20231;-76
2023/10/30 08:34:00;;;;;;;6.70;6.10;;;15.30;97.20;;;;;;1739792;28;20472;-77
2023/10/30 08:34:54;;;;;;;6.18;5.72;;;15.30;97.20;;;;;;1740873;28;20238;-76
2023/10/30 08:35:47;;;;;;;6.40;5.80;;;15.30;97.20;;;;;;1740350;28;20199;-77
2023/10/30 08:36:40;;;;;;;5.55;5.05;;;15.30;97.20;;;;;;1740553;28;20209;-76
2023/10/30 08:37:31;;;;;;;6.47;5.80;;;15.30;97.20;;;;;;1740688;28;20701;-76
2023/10/30 08:38:22;;;;;;;6.03;5.45;;;15.30;97.20;;;;;;1740553;28;20214;-77
2023/10/30 08:39:14;;;;;;;5.90;5.50;;;15.30;97.20;;;;;;1740624;28;20207;-76
2023/10/30 08:40:08;;;;;;;6.60;6.00;;;15.30;97.20;;;;;;1740559;28;20207;-76
2023/10/30 08:40:59;;;;;;;6.20;5.68;;;15.30;97.20;;;;;;1737375;28;20199;-77
2023/10/30 08:41:50;;;;;;;6.05;5.55;;;15.30;97.20;;;;;;1738128;28;20203;-77
2023/10/30 08:42:41;;;;;;;5.83;5.23;;;15.30;97.20;;;;;;1740540;28;20198;-76
2023/10/30 08:43:33;;;;;;;5.90;5.40;;;15.40;97.20;;;;;;1739722;28;20234;-77
2023/10/30 08:44:24;;;;;;;9.40;5.25;;;15.40;97.20;;;;;;1740562;28;20215;-78
2023/10/30 08:45:16;;;;;;;6.28;5.75;;;15.40;97.20;;;;;;1740264;28;20233;-76
2023/10/30 08:46:07;;;;;;;5.75;5.25;;;15.40;97.20;;;;;;1736657;28;20265;-76
2023/10/30 08:46:57;;;;;;;5.70;5.20;;;15.40;97.20;;;;;;1734002;28;20254;-76
2023/10/30 08:47:49;;;;;;;5.87;5.27;;;15.50;97.20;;;;;;1737226;28;20293;-77
2023/10/30 08:48:40;;;;;;;5.85;5.35;;;15.50;97.20;;;;;;1740035;28;20202;-75
2023/10/30 08:49:32;;;;;;;5.90;5.40;;;15.50;97.20;;;;;;1740518;28;20203;-76
2023/10/30 08:50:24;;;;;;;6.00;5.50;;;15.50;97.20;;;;;;1733650;28;20234;-77
2023/10/30 08:51:16;;;;;;;6.18;5.60;;;15.50;97.20;;;;;;1739269;28;20202;-77
2023/10/30 08:52:07;;;;;;;6.65;5.95;;;15.50;97.20;;;;;;1740662;28;20195;-76
2023/10/30 08:52:59;;;;;;;7.37;6.17;;;15.50;97.20;;;;;;1740330;28;20203;-76
2023/10/30 08:53:50;;;;;;;6.82;6.13;;;15.50;97.20;;;;;;1739641;28;20234;-75
2023/10/30 08:54:43;;;;;;;5.72;5.22;;;15.50;97.20;;;;;;1740368;28;20199;-76
2023/10/30 08:55:34;;;;;;;6.50;5.90;;;15.60;97.20;;;;;;1740549;28;20259;-76
2023/10/30 08:56:25;;;;;;;5.93;5.40;;;15.60;97.20;;;;;;1740502;28;20257;-76
2023/10/30 08:57:19;;;;;;;5.77;5.27;;;15.60;97.20;;;;;;1740638;28;20931;-76
2023/10/30 08:58:09;;;;;;;6.07;5.38;;;15.60;97.20;;;;;;1740570;28;20698;-76
2023/10/30 08:59:03;;;;;;;7.10;5.70;;;15.60;97.20;;;;;;1740544;28;20670;-77
2023/10/30 08:59:55;;;;;;;5.85;5.30;;;15.60;97.20;;;;;;1740409;28;20282;-76
2023/10/30 09:00:46;;;;;;;5.88;5.38;;;15.60;97.20;;;;;;1739888;28;20207;-75
2023/10/30 09:01:36;;;;;;;7.00;5.30;;;15.60;97.20;;;;;;1736326;28;20199;-77
2023/10/30 09:02:28;;;;;;;6.40;5.80;;;15.60;97.20;;;;;;1740261;28;20215;-75
2023/10/30 09:03:19;;;;;;;5.72;5.22;;;15.60;97.20;;;;;;1741347;28;20214;-75
2023/10/30 09:04:12;;;;;;;6.27;5.77;;;15.70;97.20;;;;;;1737305;28;20242;-76
2023/10/30 09:05:03;;;;;;;5.40;5.00;;;15.70;97.20;;;;;;1738585;28;20879;-77
2023/10/30 09:05:59;;;;;;;6.30;5.80;;;15.70;97.20;;;;;;1739356;28;20703;-75
2023/10/30 09:06:50;;;;;;;8.00;5.82;;;15.70;97.20;;;;;;1738039;28;20211;-75
2023/10/30 09:07:43;;;;;;;5.87;5.37;;;15.70;97.20;;;;;;1740600;28;20199;-75
2023/10/30 09:08:34;;;;;;;6.25;5.75;;;15.70;97.20;;;;;;1740662;28;20971;-75
2023/10/30 09:09:25;;;;;;;6.00;5.50;;;15.70;97.20;;;;;;1740801;28;20683;-75
2023/10/30 09:10:17;;;;;;;7.05;6.45;;;15.70;97.20;;;;;;1740587;28;20203;-77
2023/10/30 09:11:07;;;;;;;6.70;6.10;;;15.70;97.20;;;;;;1741288;28;21510;-77
2023/10/30 09:12:00;;;;;;;7.20;6.50;;;15.70;97.20;;;;;;1740568;28;20290;-76
2023/10/30 09:12:52;;;;;;;11.70;9.10;;;15.70;97.20;;;;;;1740808;28;20195;-77
2023/10/30 09:13:42;;;;;;;14.13;12.10;;;15.70;97.20;;;;;;1739765;28;20615;-77
2023/10/30 09:14:33;;;;;;;10.10;9.10;;;15.70;97.20;;;;;;1739966;28;20199;-75
2023/10/30 09:15:25;;;;;;;10.20;8.20;;;15.70;97.20;;;;;;1740481;28;20206;-77
2023/10/30 09:16:15;;;;;;;8.30;7.32;;;15.70;97.20;;;;;;1736949;28;20215;-76
2023/10/30 09:17:08;;;;;;;6.47;5.87;;;15.70;97.20;;;;;;1738470;28;20203;-77
2023/10/30 09:17:59;;;;;;;10.88;5.95;;;15.70;97.20;;;;;;1740129;28;20210;-77
2023/10/30 09:18:52;;;;;;;7.00;6.40;;;15.70;97.20;;;;;;1740122;28;20211;-77
2023/10/30 09:19:43;;;;;;;5.90;5.40;;;15.70;97.20;;;;;;1740221;28;20564;-76
2023/10/30 09:20:37;;;;;;;6.53;5.93;;;15.70;97.20;;;;;;1740691;28;20624;-76
2023/10/30 09:21:30;;;;;;;5.38;4.88;;;15.70;97.20;;;;;;1735870;28;20208;-75
2023/10/30 09:22:21;;;;;;;9.10;4.82;;;15.70;97.20;;;;;;1740401;28;20211;-75
2023/10/30 09:23:14;;;;;;;4.90;4.50;;;15.70;97.20;;;;;;1739262;28;20199;-76
2023/10/30 09:24:05;;;;;;;6.40;5.45;;;15.70;97.20;;;;;;1737797;28;20223;-77
2023/10/30 09:24:56;;;;;;;6.25;5.60;;;15.70;97.20;;;;;;1740782;28;20683;-77
2023/10/30 09:25:48;;;;;;;5.30;4.80;;;15.70;97.20;;;;;;1745057;28;20784;-76
2023/10/30 09:26:39;;;;;;;6.75;6.07;;;15.70;97.20;;;;;;1735786;28;20214;-76
2023/10/30 09:27:29;;;;;;;6.30;5.80;;;15.70;97.20;;;;;;1740490;28;20317;-76
2023/10/30 09:28:21;;;;;;;5.90;5.40;;;15.70;97.20;;;;;;1740387;28;21007;-77
2023/10/30 09:29:12;;;;;;;6.28;5.68;;;15.70;97.20;;;;;;1739005;28;20210;-77
2023/10/30 09:30:04;;;;;;;6.70;5.90;;;15.70;97.20;;;;;;1740442;28;20286;-77
2023/10/30 09:30:55;;;;;;;7.80;5.15;;;15.80;97.20;;;;;;1737086;28;20207;-76
2023/10/30 09:31:49;;;;;;;5.97;5.50;;;15.70;97.20;;;;;;1733908;28;20653;-75
2023/10/30 09:32:40;;;;;;;5.75;5.30;;;15.80;97.20;;;;;;1739812;28;20203;-75
2023/10/30 09:33:33;;;;;;;5.80;5.30;;;15.80;97.20;;;;;;1736985;28;20200;-75
2023/10/30 09:34:25;;;;;;;6.22;5.65;;;15.80;97.20;;;;;;1736698;28;20931;-75
2023/10/30 09:35:17;;;;;;;5.60;5.20;;;15.80;97.20;;;;;;1739043;28;20281;-75
2023/10/30 09:36:08;;;;;;;6.10;5.45;;;15.80;97.20;;;;;;1738935;28;20203;-76
2023/10/30 09:37:00;;;;;;;6.03;5.43;;;15.80;97.20;;;;;;1739072;28;20226;-76
2023/10/30 09:37:51;;;;;;;6.32;5.75;;;15.80;97.20;;;;;;1739794;28;21253;-76
2023/10/30 09:38:42;;;;;;;6.32;5.72;;;15.80;97.20;;;;;;1740943;28;20207;-77
2023/10/30 09:39:34;;;;;;;6.10;5.50;;;15.80;97.20;;;;;;1740572;28;20195;-77
2023/10/30 09:40:26;;;;;;;7.13;5.03;;;15.80;97.20;;;;;;1740492;28;20249;-77
2023/10/30 09:41:18;;;;;;;5.57;5.07;;;15.80;97.20;;;;;;1740346;28;20194;-76
2023/10/30 09:42:10;;;;;;;5.72;5.22;;;15.90;97.20;;;;;;1740746;28;20195;-77
2023/10/30 09:43:04;;;;;;;6.40;5.82;;;15.90;97.20;;;;;;1742793;28;20207;-76
2023/10/30 09:43:57;;;;;;;5.60;5.10;;;15.90;97.20;;;;;;1739452;28;20264;-77
2023/10/30 09:44:49;;;;;;;7.10;5.15;;;15.90;97.20;;;;;;1740526;28;20685;-77
2023/10/30 09:45:43;;;;;;;6.15;5.65;;;15.90;97.20;;;;;;1740394;28;20860;-76
2023/10/30 09:46:34;;;;;;;6.63;6.07;;;15.90;97.20;;;;;;1736244;28;20242;-76
2023/10/30 09:47:25;;;;;;;6.22;5.63;;;15.90;97.20;;;;;;1740272;28;20245;-75
2023/10/30 09:48:18;;;;;;;6.45;5.95;;;16.00;97.20;;;;;;1740386;28;20209;-75
2023/10/30 09:49:11;;;;;;;6.25;5.70;;;16.00;97.20;;;;;;1740497;28;20199;-77
2023/10/30 09:50:03;;;;;;;6.00;5.45;;;16.00;97.20;;;;;;1740263;28;20274;-76
2023/10/30 09:50:56;;;;;;;6.70;5.18;;;16.00;97.20;;;;;;1740269;28;20211;-76
2023/10/30 09:51:48;;;;;;;5.10;4.70;;;16.00;97.20;;;;;;1739676;28;20222;-75
2023/10/30 09:52:41;;;;;;;5.70;5.20;;;16.10;97.20;;;;;;1740294;28;20700;-75
2023/10/30 09:53:35;;;;;;;5.78;5.18;;;16.10;97.20;;;;;;1738678;28;20230;-75
2023/10/30 09:54:27;;;;;;;5.80;5.28;;;16.10;97.20;;;;;;1741243;28;20668;-76
2023/10/30 09:55:20;;;;;;;5.55;5.05;;;16.10;97.20;;;;;;1740427;28;20221;-76
2023/10/30 09:56:13;;;;;;;5.63;5.00;;;16.20;97.20;;;;;;1744291;28;20198;-77
2023/10/30 09:57:06;;;;;;;5.78;5.03;;;16.20;97.20;;;;;;1737804;28;20257;-77
2023/10/30 09:57:56;;;;;;;4.97;4.47;;;16.20;97.20;;;;;;1740365;28;20203;-77
2023/10/30 09:58:49;;;;;;;5.83;5.33;;;16.20;97.20;;;;;;1740515;28;20203;-77
2023/10/30 09:59:42;;;;;;;5.95;5.45;;;16.20;97.20;;;;;;1740350;28;20209;-76
2023/10/30 10:00:33;;;;;;;6.20;5.00;;;16.20;97.20;;;;;;1740491;28;20211;-77
2023/10/30 10:01:24;;;;;;;6.23;5.03;;;16.20;97.20;;;;;;1738250;28;20615;-76
2023/10/30 10:02:16;;;;;;;14.68;13.23;;;16.20;97.20;;;;;;1739406;28;20205;-78
2023/10/30 10:03:09;;;;;;;5.78;5.00;;;16.20;97.20;;;;;;1740048;28;20599;-76
2023/10/30 10:04:01;;;;;;;5.60;5.10;;;16.20;97.20;;;;;;1740294;28;20223;-77
2023/10/30 10:04:51;;;;;;;7.95;7.25;;;16.20;97.20;;;;;;1740337;28;20211;-75
2023/10/30 10:05:43;;;;;;;14.97;13.60;;;16.30;97.20;;;;;;1740271;28;20202;-76
2023/10/30 10:06:34;;;;;;;15.23;13.77;;;16.30;97.20;;;;;;1740031;28;20199;-76
2023/10/30 10:07:25;;;;;;;8.47;7.67;;;16.30;97.20;;;;;;1740368;28;20195;-76
2023/10/30 10:08:18;;;;;;;8.18;7.50;;;16.30;97.20;;;;;;1740140;28;20241;-76
2023/10/30 10:09:09;;;;;;;10.13;8.70;;;16.30;97.20;;;;;;1740232;28;20688;-76
2023/10/30 10:10:02;;;;;;;7.47;6.77;;;16.30;97.20;;;;;;1739958;28;20588;-77
2023/10/30 10:10:55;;;;;;;6.78;4.68;;;16.30;97.20;;;;;;1740265;28;20206;-77
2023/10/30 10:11:46;;;;;;;5.82;5.32;;;16.30;97.20;;;;;;1740011;28;20617;-77
2023/10/30 10:12:37;;;;;;;6.53;4.95;;;16.30;97.20;;;;;;1740257;28;20203;-77
2023/10/30 10:13:31;;;;;;;7.00;5.17;;;16.30;97.20;;;;;;1738873;28;20211;-76
2023/10/30 10:14:21;;;;;;;5.15;4.65;;;16.30;97.20;;;;;;1741267;28;20242;-77
2023/10/30 10:15:13;;;;;;;6.60;5.90;;;16.20;97.20;;;;;;1740991;28;20199;-79
2023/10/30 10:16:05;;;;;;;8.25;5.75;;;16.20;97.20;;;;;;1739707;28;20688;-77
2023/10/30 10:16:59;;;;;;;5.90;5.30;;;16.20;97.20;;;;;;1737924;28;20222;-77
2023/10/30 10:17:50;;;;;;;5.40;5.00;;;16.10;97.20;;;;;;1740377;28;20214;-77
2023/10/30 10:18:41;;;;;;;5.70;5.20;;;16.10;97.20;;;;;;1740249;28;20195;-76
2023/10/30 10:19:34;;;;;;;9.32;5.55;;;16.10;97.20;;;;;;1740016;28;20457;-77
2023/10/30 10:20:27;;;;;;;13.70;12.40;;;16.10;97.20;;;;;;1740310;28;20289;-76
2023/10/30 10:21:18;;;;;;;13.63;12.20;;;16.10;97.20;;;;;;1739972;28;20579;-77
2023/10/30 10:22:09;;;;;;;13.03;11.73;;;16.10;97.20;;;;;;1740030;28;20594;-77
2023/10/30 10:23:00;;;;;;;8.15;7.45;;;16.10;97.20;;;;;;1739822;28;20210;-77
2023/10/30 10:23:53;;;;;;;6.13;5.53;;;16.10;97.20;;;;;;1742383;28;20246;-78
2023/10/30 10:24:44;;;;;;;8.60;7.90;;;16.20;97.20;;;;;;1741172;28;20624;-78
2023/10/30 10:25:35;;;;;;;8.63;7.93;;;16.20;97.20;;;;;;1741129;28;20639;-77
2023/10/30 10:26:30;;;;;;;10.23;9.33;;;16.20;97.20;;;;;;1739976;28;20446;-78
2023/10/30 10:27:21;;;;;;;7.35;6.75;;;16.20;97.20;;;;;;1742050;28;20692;-78
2023/10/30 10:28:12;;;;;;;6.50;5.88;;;16.30;97.20;;;;;;1740727;28;20293;-78